CSK weather

Cap Skirring Airport
Cap Skirring, Ziguinchor Region, Senegal

Public forecast

Using degrees Celsius for public forecast. Weather courtesy of forecast.io.

Current aviation weather report (METAR) for Cap Skirring Airport

Retrieved 2019/10/22 00:00 UTC (39 minutes ago):

GOGS 220000Z VRB02KT 9999 TS FEW030CB 27/24 Q1012

Aviation forecast (TAF) for Cap Skirring Airport

Retrieved 2019-10-22 00:51 UTC (0 seconds ago):

TAF GOGS 212330Z 2200/2224 33008KT CAVOK